Time;durP1;ratioP1;P1;durP2;ratioP2;P2;SDS_P1;SDS_P2;PMS_P1;PMS_P2;Temp;Humidity;BMP_temperature;BMP_pressure;BME280_temperature;BME280_humidity;BME280_pressure;Samples;Min_cycle;Max_cycle;Signal;HPM_P1;HPM_P2
2022/09/17 00:02:01;;;;;;;17.63;2.97;;;;;;;;;;5068650;28;20031;-77
2022/09/17 00:04:27;;;;;;;14.98;2.67;;;;;;;;;;5068382;28;20409;-77
2022/09/17 00:06:53;;;;;;;19.27;3.13;;;;;;;;;;5068254;28;20070;-77
2022/09/17 00:09:19;;;;;;;12.38;3.15;;;;;;;;;;5068903;28;20025;-77
2022/09/17 00:11:45;;;;;;;15.18;3.35;;;;;;;;;;5068059;28;20060;-77
2022/09/17 00:14:16;;;;;;;14.43;3.15;;;;;;;;;;5068178;28;20035;-77
2022/09/17 00:16:44;;;;;;;19.25;3.35;;;;;;;;;;5066774;28;20035;-77
2022/09/17 00:19:15;;;;;;;19.85;4.00;;;;;;;;;;5068187;28;20076;-77
2022/09/17 00:21:41;;;;;;;19.45;4.15;;;;;;;;;;5068299;28;20044;-77
2022/09/17 00:24:07;;;;;;;15.60;4.13;;;;;;;;;;5071743;28;20037;-77
2022/09/17 00:26:36;;;;;;;21.77;4.88;;;;;;;;;;5072604;28;20159;-77
2022/09/17 00:29:03;;;;;;;20.48;3.95;;;;;;;;;;5073756;28;20063;-77
2022/09/17 00:31:29;;;;;;;21.13;4.35;;;;;;;;;;5070855;28;20025;-77
2022/09/17 00:33:55;;;;;;;17.02;3.90;;;;;;;;;;5071960;28;20103;-77
2022/09/17 00:36:22;;;;;;;15.13;3.25;;;;;;;;;;5057840;28;20020;-77
2022/09/17 00:38:51;;;;;;;16.23;3.22;;;;;;;;;;5071960;28;20021;-77
2022/09/17 00:41:17;;;;;;;17.98;3.75;;;;;;;;;;5071741;28;20078;-78
2022/09/17 00:43:45;;;;;;;20.23;3.72;;;;;;;;;;5071939;28;20023;-77
2022/09/17 00:46:18;;;;;;;13.85;2.35;;;;;;;;;;5070861;28;20099;-77
2022/09/17 00:48:44;;;;;;;15.63;3.28;;;;;;;;;;5072079;28;20017;-77
2022/09/17 00:51:10;;;;;;;13.00;2.58;;;;;;;;;;5071488;28;20445;-77
2022/09/17 00:53:37;;;;;;;14.13;2.20;;;;;;;;;;5071783;28;20043;-77
2022/09/17 00:56:18;;;;;;;16.48;3.30;;;;;;;;;;5066271;28;20078;-77
2022/09/17 00:58:44;;;;;;;13.07;2.38;;;;;;;;;;5071506;28;20036;-77
2022/09/17 01:01:11;;;;;;;15.88;3.88;;;;;;;;;;5071278;28;20459;-77
2022/09/17 01:03:37;;;;;;;16.00;2.95;;;;;;;;;;5071502;28;20105;-78
2022/09/17 01:06:20;;;;;;;16.55;2.97;;;;;;;;;;5069916;28;20025;-78
2022/09/17 01:08:58;;;;;;;13.75;2.67;;;;;;;;;;5071431;28;20390;-78
2022/09/17 01:11:24;;;;;;;15.88;2.88;;;;;;;;;;5071004;28;20024;-76
2022/09/17 01:14:02;;;;;;;17.40;3.00;;;;;;;;;;5070493;28;20420;-76
2022/09/17 01:16:28;;;;;;;14.93;3.08;;;;;;;;;;5071578;28;20033;-75
2022/09/17 01:19:13;;;;;;;21.48;3.85;;;;;;;;;;5071185;28;20102;-75
2022/09/17 01:21:46;;;;;;;18.50;3.38;;;;;;;;;;5071158;28;20122;-76
2022/09/17 01:24:31;;;;;;;12.18;2.67;;;;;;;;;;5070151;28;20031;-76
2022/09/17 01:26:57;;;;;;;16.38;3.05;;;;;;;;;;5071290;28;20025;-76
2022/09/17 01:29:38;;;;;;;17.63;2.92;;;;;;;;;;5071694;28;20089;-76
2022/09/17 01:32:04;;;;;;;15.00;3.05;;;;;;;;;;5071773;28;20040;-77
2022/09/17 01:34:50;;;;;;;18.63;2.90;;;;;;;;;;5068588;28;20036;-77
2022/09/17 01:37:33;;;;;;;12.55;3.03;;;;;;;;;;5070980;28;20056;-76
2022/09/17 01:40:07;;;;;;;11.38;2.38;;;;;;;;;;5070531;28;20035;-78
2022/09/17 01:42:47;;;;;;;11.95;2.60;;;;;;;;;;5070977;28;20465;-77
2022/09/17 01:45:26;;;;;;;13.10;3.67;;;;;;;;;;5067843;28;20394;-77
2022/09/17 01:47:55;;;;;;;12.85;2.53;;;;;;;;;;5071415;28;20134;-77
2022/09/17 01:50:30;;;;;;;15.10;2.40;;;;;;;;;;5071341;28;20017;-77
2022/09/17 01:52:56;;;;;;;13.85;2.45;;;;;;;;;;5070728;28;20094;-77
2022/09/17 01:55:25;;;;;;;18.70;2.83;;;;;;;;;;5070334;28;20035;-77
2022/09/17 01:57:55;;;;;;;13.75;3.28;;;;;;;;;;5063824;28;20016;-77
2022/09/17 02:00:22;;;;;;;21.40;2.80;;;;;;;;;;5071063;28;20029;-77
2022/09/17 02:03:00;;;;;;;19.25;3.75;;;;;;;;;;5071076;28;20033;-78
2022/09/17 02:05:29;;;;;;;12.85;3.30;;;;;;;;;;5070622;28;20074;-77
2022/09/17 02:08:02;;;;;;;16.85;3.13;;;;;;;;;;5070054;28;20032;-78
2022/09/17 02:10:31;;;;;;;17.35;3.00;;;;;;;;;;5069903;28;20104;-78
2022/09/17 02:13:00;;;;;;;18.52;3.40;;;;;;;;;;5069982;28;20056;-77
2022/09/17 02:15:31;;;;;;;14.93;2.30;;;;;;;;;;5069564;28;20024;-77
2022/09/17 02:18:00;;;;;;;19.38;3.25;;;;;;;;;;5069692;28;20070;-77
2022/09/17 02:20:30;;;;;;;18.02;3.03;;;;;;;;;;5069847;28;20094;-76
2022/09/17 02:22:59;;;;;;;12.38;2.40;;;;;;;;;;5059353;28;20037;-76
2022/09/17 02:25:33;;;;;;;14.77;3.22;;;;;;;;;;5060884;28;20028;-77
2022/09/17 02:28:06;;;;;;;16.60;2.30;;;;;;;;;;5069406;28;20028;-76
2022/09/17 02:30:32;;;;;;;18.48;3.10;;;;;;;;;;5069968;28;20020;-77
2022/09/17 02:32:59;;;;;;;14.25;2.15;;;;;;;;;;5069682;28;20406;-77
2022/09/17 02:35:25;;;;;;;16.83;3.08;;;;;;;;;;5069755;28;20012;-77
2022/09/17 02:37:52;;;;;;;15.23;2.90;;;;;;;;;;5068466;28;20021;-77
2022/09/17 02:40:19;;;;;;;16.67;3.25;;;;;;;;;;5069982;28;20483;-78
2022/09/17 02:42:56;;;;;;;12.65;2.55;;;;;;;;;;5069402;28;20422;-79
2022/09/17 02:45:29;;;;;;;12.40;2.30;;;;;;;;;;5070509;28;20116;-78
2022/09/17 02:48:13;;;;;;;15.98;3.20;;;;;;;;;;5059511;28;20027;-78
2022/09/17 02:50:39;;;;;;;15.35;2.47;;;;;;;;;;5068143;28;20020;-76
2022/09/17 02:53:21;;;;;;;14.80;3.00;;;;;;;;;;5068415;28;20486;-77
2022/09/17 02:56:06;;;;;;;23.00;3.45;;;;;;;;;;5069264;28;20081;-77
2022/09/17 02:58:46;;;;;;;16.60;2.63;;;;;;;;;;5053124;28;20026;-77
2022/09/17 03:01:19;;;;;;;12.40;2.55;;;;;;;;;;5056663;28;20483;-78
2022/09/17 03:03:45;;;;;;;11.45;2.03;;;;;;;;;;5069628;28;20116;-77
2022/09/17 03:06:12;;;;;;;14.60;2.80;;;;;;;;;;5068941;28;20027;-77
2022/09/17 03:08:41;;;;;;;16.65;2.35;;;;;;;;;;5069167;28;20170;-77
2022/09/17 03:11:08;;;;;;;19.93;3.03;;;;;;;;;;5069435;28;20025;-78
2022/09/17 03:13:35;;;;;;;13.70;2.53;;;;;;;;;;5067766;28;20033;-77
2022/09/17 03:16:04;;;;;;;11.82;2.08;;;;;;;;;;5069020;28;20392;-78
2022/09/17 03:18:30;;;;;;;20.98;2.85;;;;;;;;;;5054493;28;20028;-77
2022/09/17 03:20:56;;;;;;;15.35;2.90;;;;;;;;;;5068877;28;20430;-78
2022/09/17 03:23:22;;;;;;;10.63;2.30;;;;;;;;;;5068911;28;20040;-78
2022/09/17 03:25:48;;;;;;;11.27;2.35;;;;;;;;;;5069019;28;20462;-78
2022/09/17 03:28:16;;;;;;;19.00;2.38;;;;;;;;;;5066854;28;20060;-78
2022/09/17 03:30:43;;;;;;;12.32;1.98;;;;;;;;;;5067912;28;20025;-78
2022/09/17 03:33:11;;;;;;;11.18;2.72;;;;;;;;;;5068689;28;20124;-78
2022/09/17 03:35:37;;;;;;;17.88;2.63;;;;;;;;;;5067296;28;20023;-78
2022/09/17 03:38:03;;;;;;;14.63;2.45;;;;;;;;;;5068414;28;20024;-77
2022/09/17 03:40:29;;;;;;;14.98;2.50;;;;;;;;;;5068804;28;20446;-78
2022/09/17 03:42:56;;;;;;;12.52;2.47;;;;;;;;;;5068592;28;20027;-77
2022/09/17 03:45:22;;;;;;;14.27;2.83;;;;;;;;;;5068909;28;20025;-77
2022/09/17 03:47:47;;;;;;;17.77;2.80;;;;;;;;;;5068612;28;20086;-77
2022/09/17 03:50:13;;;;;;;14.43;2.17;;;;;;;;;;5068649;28;20463;-77
2022/09/17 03:52:39;;;;;;;13.88;2.40;;;;;;;;;;5068623;28;20025;-77
2022/09/17 03:55:06;;;;;;;19.35;4.32;;;;;;;;;;5068273;28;20029;-77
2022/09/17 03:57:32;;;;;;;14.00;2.10;;;;;;;;;;5071778;28;20043;-77
2022/09/17 03:59:58;;;;;;;13.38;2.00;;;;;;;;;;5072526;28;20029;-77
2022/09/17 04:02:24;;;;;;;11.93;2.13;;;;;;;;;;5072391;28;20040;-77
2022/09/17 04:04:52;;;;;;;14.88;2.75;;;;;;;;;;5072452;28;20024;-77
2022/09/17 04:07:18;;;;;;;15.60;2.10;;;;;;;;;;5073054;28;20021;-77
2022/09/17 04:09:44;;;;;;;15.27;2.28;;;;;;;;;;5072298;28;20024;-79
2022/09/17 04:12:10;;;;;;;10.75;2.30;;;;;;;;;;5072337;28;20372;-77
2022/09/17 04:14:36;;;;;;;13.80;2.45;;;;;;;;;;5072099;28;20036;-77
2022/09/17 04:17:02;;;;;;;12.05;2.00;;;;;;;;;;5072195;28;20032;-76
2022/09/17 04:19:28;;;;;;;11.82;2.03;;;;;;;;;;5072477;28;20031;-78
2022/09/17 04:21:54;;;;;;;8.88;1.70;;;;;;;;;;5071863;28;20052;-78
2022/09/17 04:24:20;;;;;;;11.48;2.55;;;;;;;;;;5072151;28;20021;-77
2022/09/17 04:26:46;;;;;;;15.18;2.53;;;;;;;;;;5071814;28;20035;-77
2022/09/17 04:29:12;;;;;;;11.25;1.92;;;;;;;;;;5072381;28;20082;-78
2022/09/17 04:31:39;;;;;;;22.38;2.60;;;;;;;;;;5072223;28;20060;-79
2022/09/17 04:34:05;;;;;;;12.93;2.08;;;;;;;;;;5072155;28;20111;-78
2022/09/17 04:36:31;;;;;;;10.00;1.75;;;;;;;;;;5072196;28;20142;-79
2022/09/17 04:38:57;;;;;;;11.23;2.42;;;;;;;;;;5070314;28;20063;-79
2022/09/17 04:41:23;;;;;;;8.20;1.50;;;;;;;;;;5071864;28;20052;-79
2022/09/17 04:43:49;;;;;;;11.18;1.92;;;;;;;;;;5072153;28;20111;-79
2022/09/17 04:46:15;;;;;;;15.00;2.47;;;;;;;;;;5071307;28;20124;-79
2022/09/17 04:48:41;;;;;;;10.13;2.00;;;;;;;;;;5071912;28;20027;-78
2022/09/17 04:51:07;;;;;;;13.68;2.38;;;;;;;;;;5071584;28;20028;-76
2022/09/17 04:53:34;;;;;;;8.88;1.67;;;;;;;;;;5072201;28;20068;-78
2022/09/17 04:56:00;;;;;;;11.82;1.67;;;;;;;;;;5072547;28;20044;-78
2022/09/17 04:58:26;;;;;;;12.32;2.70;;;;;;;;;;5060259;28;20033;-78
2022/09/17 05:00:52;;;;;;;15.35;2.63;;;;;;;;;;5065804;28;20016;-77
2022/09/17 05:03:18;;;;;;;15.15;3.03;;;;;;;;;;5071987;28;20033;-78
2022/09/17 05:05:44;;;;;;;10.88;1.95;;;;;;;;;;5071840;28;20017;-78
2022/09/17 05:08:15;;;;;;;14.85;2.15;;;;;;;;;;5069640;28;20106;-78
2022/09/17 05:10:41;;;;;;;15.77;2.55;;;;;;;;;;5071571;28;20016;-77
2022/09/17 05:13:10;;;;;;;13.52;2.75;;;;;;;;;;5062238;28;20052;-78
2022/09/17 05:15:36;;;;;;;13.25;2.88;;;;;;;;;;5057995;28;20023;-78
2022/09/17 05:18:02;;;;;;;13.45;2.67;;;;;;;;;;5071100;28;20037;-77
2022/09/17 05:20:28;;;;;;;11.25;2.13;;;;;;;;;;5070689;28;20027;-76
2022/09/17 05:22:55;;;;;;;13.35;2.30;;;;;;;;;;5069706;28;20110;-78
2022/09/17 05:25:25;;;;;;;9.80;2.35;;;;;;;;;;5071352;28;20108;-78
2022/09/17 05:27:52;;;;;;;12.25;2.08;;;;;;;;;;5067972;28;20548;-77
2022/09/17 05:30:18;;;;;;;13.40;2.97;;;;;;;;;;5069838;28;20399;-78
2022/09/17 05:32:44;;;;;;;10.13;2.10;;;;;;;;;;5070326;28;20040;-77
2022/09/17 05:35:13;;;;;;;14.98;2.28;;;;;;;;;;5066336;28;20025;-77
2022/09/17 05:37:39;;;;;;;14.25;2.50;;;;;;;;;;5069541;28;20077;-77
2022/09/17 05:40:06;;;;;;;10.30;2.38;;;;;;;;;;5070918;28;20100;-77
2022/09/17 05:42:32;;;;;;;9.35;1.48;;;;;;;;;;5070095;28;20541;-77
2022/09/17 05:44:58;;;;;;;12.65;2.00;;;;;;;;;;5070095;28;20032;-77
2022/09/17 05:47:25;;;;;;;15.75;2.55;;;;;;;;;;5070486;28;20024;-77
2022/09/17 05:49:52;;;;;;;9.07;1.23;;;;;;;;;;5070169;28;20036;-70
2022/09/17 05:52:18;;;;;;;10.80;2.03;;;;;;;;;;5070546;28;20025;-70
2022/09/17 05:54:44;;;;;;;8.50;1.67;;;;;;;;;;5069999;28;20024;-70
2022/09/17 05:57:12;;;;;;;9.70;1.40;;;;;;;;;;5065682;28;20715;-70
2022/09/17 05:59:38;;;;;;;8.70;1.33;;;;;;;;;;5068640;28;20047;-71
2022/09/17 06:02:04;;;;;;;6.03;1.38;;;;;;;;;;5060447;28;20024;-71
2022/09/17 06:04:30;;;;;;;8.82;1.52;;;;;;;;;;5065128;28;20104;-71
2022/09/17 06:06:56;;;;;;;5.70;0.98;;;;;;;;;;5053287;28;20060;-71
2022/09/17 06:09:22;;;;;;;10.27;1.50;;;;;;;;;;5070025;28;20025;-70
2022/09/17 06:11:48;;;;;;;5.30;1.45;;;;;;;;;;5070399;28;20074;-71
2022/09/17 06:14:15;;;;;;;9.55;1.42;;;;;;;;;;5069667;28;20028;-71
2022/09/17 06:16:41;;;;;;;7.32;1.30;;;;;;;;;;5069819;28;20024;-71
2022/09/17 06:19:07;;;;;;;8.82;1.63;;;;;;;;;;5069838;28;20375;-77
2022/09/17 06:21:33;;;;;;;9.57;1.88;;;;;;;;;;5069842;28;20059;-76
2022/09/17 06:24:00;;;;;;;7.00;1.85;;;;;;;;;;5068448;28;20025;-76
2022/09/17 06:26:26;;;;;;;9.70;2.05;;;;;;;;;;5064855;28;20024;-77
2022/09/17 06:28:52;;;;;;;7.70;1.30;;;;;;;;;;5061593;28;20028;-77
2022/09/17 06:31:18;;;;;;;9.38;1.85;;;;;;;;;;5069505;28;20468;-77
2022/09/17 06:33:44;;;;;;;12.07;1.98;;;;;;;;;;5069492;28;20075;-77
2022/09/17 06:36:11;;;;;;;9.40;1.52;;;;;;;;;;5063597;28;20052;-77
2022/09/17 06:38:37;;;;;;;8.68;1.65;;;;;;;;;;5066452;28;20025;-76
2022/09/17 06:41:03;;;;;;;13.75;1.95;;;;;;;;;;5069582;28;20025;-79
2022/09/17 06:43:29;;;;;;;11.82;1.85;;;;;;;;;;5062757;28;20070;-79
2022/09/17 06:46:04;;;;;;;11.90;2.40;;;;;;;;;;5059887;28;20542;-80
2022/09/17 06:48:33;;;;;;;10.90;1.92;;;;;;;;;;5062242;28;20029;-80
2022/09/17 06:51:03;;;;;;;8.48;2.35;;;;;;;;;;5057493;28;20510;-79
2022/09/17 06:53:30;;;;;;;10.15;1.40;;;;;;;;;;5057911;28;20068;-79
2022/09/17 06:55:57;;;;;;;5.03;1.10;;;;;;;;;;5067759;28;20024;-76
2022/09/17 06:58:23;;;;;;;7.25;1.45;;;;;;;;;;5069528;28;20024;-77
2022/09/17 07:00:49;;;;;;;9.13;1.60;;;;;;;;;;5069213;28;20028;-78
2022/09/17 07:03:17;;;;;;;9.63;1.20;;;;;;;;;;5067123;28;20032;-80
2022/09/17 07:05:44;;;;;;;11.52;1.45;;;;;;;;;;5064619;28;20028;-79
2022/09/17 07:08:14;;;;;;;9.15;1.50;;;;;;;;;;5047788;28;20021;-79
2022/09/17 07:10:40;;;;;;;8.80;1.65;;;;;;;;;;5066961;28;20047;-78
2022/09/17 07:13:05;;;;;;;9.73;1.52;;;;;;;;;;5066528;28;20040;-78
2022/09/17 07:15:33;;;;;;;10.80;1.83;;;;;;;;;;5065429;28;20032;-80
2022/09/17 07:17:59;;;;;;;8.90;1.60;;;;;;;;;;5067335;28;20534;-78
2022/09/17 07:20:25;;;;;;;8.45;1.50;;;;;;;;;;5061287;28;20402;-78
2022/09/17 07:22:55;;;;;;;8.25;1.42;;;;;;;;;;5067958;28;20095;-80
2022/09/17 07:25:21;;;;;;;;;;;;;;;;;;5069348;28;20024;-78
2022/09/17 07:27:47;;;;;;;9.57;1.65;;;;;;;;;;5068918;28;19904;-80
2022/09/17 07:30:14;;;;;;;8.02;2.13;;;;;;;;;;5061661;28;20078;-80
2022/09/17 07:32:40;;;;;;;6.00;1.13;;;;;;;;;;5052035;28;20029;-79
2022/09/17 07:35:07;;;;;;;5.47;1.58;;;;;;;;;;5057560;28;20032;-79
2022/09/17 07:37:33;;;;;;;9.57;1.73;;;;;;;;;;5058100;28;20033;-76
2022/09/17 07:39:59;;;;;;;8.65;1.40;;;;;;;;;;5055630;28;20085;-78
2022/09/17 07:42:26;;;;;;;8.82;1.45;;;;;;;;;;5054025;28;20055;-77
2022/09/17 07:44:52;;;;;;;7.68;1.65;;;;;;;;;;5054626;28;20107;-75
2022/09/17 07:47:18;;;;;;;6.10;1.23;;;;;;;;;;5056945;28;20226;-77
2022/09/17 07:49:44;;;;;;;9.35;1.50;;;;;;;;;;5054362;28;20110;-77
2022/09/17 07:52:10;;;;;;;9.52;1.52;;;;;;;;;;5054243;28;20032;-75
2022/09/17 07:54:36;;;;;;;9.43;1.65;;;;;;;;;;5054201;28;20037;-78
2022/09/17 07:57:03;;;;;;;4.15;0.80;;;;;;;;;;5054747;28;20404;-76
2022/09/17 07:59:29;;;;;;;8.88;1.42;;;;;;;;;;5052414;28;20471;-77
2022/09/17 08:01:55;;;;;;;8.52;1.55;;;;;;;;;;5054903;28;20802;-77
2022/09/17 08:04:21;;;;;;;7.97;1.63;;;;;;;;;;5053674;28;20037;-76
2022/09/17 08:06:47;;;;;;;11.68;1.92;;;;;;;;;;5050553;28;20033;-76
2022/09/17 08:09:16;;;;;;;5.68;1.20;;;;;;;;;;5057405;28;20025;-76
2022/09/17 08:11:42;;;;;;;8.57;1.23;;;;;;;;;;5056432;28;20104;-76
2022/09/17 08:14:13;;;;;;;8.98;1.20;;;;;;;;;;5052282;28;20085;-74
2022/09/17 08:16:39;;;;;;;10.05;1.52;;;;;;;;;;5053047;28;20058;-76
2022/09/17 08:19:06;;;;;;;8.65;1.30;;;;;;;;;;5054069;28;20057;-75
2022/09/17 08:21:32;;;;;;;7.47;1.50;;;;;;;;;;5052777;28;20075;-75
2022/09/17 08:23:58;;;;;;;9.90;1.20;;;;;;;;;;5052107;28;20479;-75
2022/09/17 08:26:25;;;;;;;8.45;1.40;;;;;;;;;;5052169;28;20036;-76
2022/09/17 08:28:55;;;;;;;7.97;1.40;;;;;;;;;;5050264;28;20047;-76
2022/09/17 08:31:22;;;;;;;7.88;1.38;;;;;;;;;;5047372;28;20041;-78
2022/09/17 08:33:49;;;;;;;8.18;1.40;;;;;;;;;;5051261;28;20592;-76
2022/09/17 08:36:16;;;;;;;10.45;2.03;;;;;;;;;;5048647;28;20017;-76
2022/09/17 08:38:42;;;;;;;5.88;1.23;;;;;;;;;;5050042;28;20037;-76
2022/09/17 08:41:25;;;;;;;6.70;1.30;;;;;;;;;;5053005;28;20029;-75
2022/09/17 08:44:03;;;;;;;7.72;0.95;;;;;;;;;;5055292;28;20072;-76
2022/09/17 08:46:42;;;;;;;7.70;1.52;;;;;;;;;;5056342;28;20021;-76
2022/09/17 08:49:29;;;;;;;7.07;1.38;;;;;;;;;;5060325;28;20066;-77
2022/09/17 08:51:59;;;;;;;8.27;1.50;;;;;;;;;;5052742;28;20036;-76
2022/09/17 08:54:25;;;;;;;;;;;;;;;;;;5058296;28;20090;-76
2022/09/17 08:56:59;;;;;;;10.77;1.75;;;;;;;;;;5057487;28;20469;-75
2022/09/17 08:59:29;;;;;;;4.97;1.02;;;;;;;;;;5055064;28;20029;-75
2022/09/17 09:01:55;;;;;;;;;;;;;;;;;;5056725;28;20044;-77
2022/09/17 09:04:39;;;;;;;4.43;0.65;;;;;;;;;;5055997;28;20283;-74
2022/09/17 09:07:10;;;;;;;7.70;1.13;;;;;;;;;;5055149;28;20501;-76
2022/09/17 09:09:44;;;;;;;4.93;0.50;;;;;;;;;;5057122;28;20475;-76
2022/09/17 09:12:18;;;;;;;7.38;1.25;;;;;;;;;;5055780;28;20048;-76
2022/09/17 09:14:48;;;;;;;4.22;0.80;;;;;;;;;;5054869;28;20029;-75
2022/09/17 09:17:17;;;;;;;4.97;0.70;;;;;;;;;;5060594;28;20024;-76
2022/09/17 09:19:44;;;;;;;6.28;1.33;;;;;;;;;;5053011;28;20028;-75
2022/09/17 09:22:19;;;;;;;4.78;1.00;;;;;;;;;;5054509;28;20056;-76
2022/09/17 09:24:57;;;;;;;8.15;1.30;;;;;;;;;;5060836;28;21396;-76
2022/09/17 09:27:26;;;;;;;5.85;1.08;;;;;;;;;;5055439;28;20025;-74
2022/09/17 09:30:03;;;;;;;6.13;1.35;;;;;;;;;;5058292;28;20051;-76
2022/09/17 09:32:39;;;;;;;6.80;1.42;;;;;;;;;;5056567;28;20040;-76
2022/09/17 09:35:18;;;;;;;6.75;0.95;;;;;;;;;;5054436;28;20029;-76
2022/09/17 09:37:48;;;;;;;4.43;1.58;;;;;;;;;;5056070;28;20034;-77
2022/09/17 09:40:33;;;;;;;5.40;1.00;;;;;;;;;;5054075;28;20446;-76
2022/09/17 09:43:01;;;;;;;6.00;0.60;;;;;;;;;;5054770;28;20052;-76
2022/09/17 09:45:41;;;;;;;6.10;1.17;;;;;;;;;;5056501;28;20534;-77
2022/09/17 09:48:27;;;;;;;6.60;1.30;;;;;;;;;;5055567;28;20426;-77
2022/09/17 09:51:07;;;;;;;6.32;1.17;;;;;;;;;;5052033;28;20032;-75
2022/09/17 09:53:41;;;;;;;2.03;0.70;;;;;;;;;;5054132;28;20041;-76
2022/09/17 09:56:20;;;;;;;6.13;1.20;;;;;;;;;;5057532;28;20020;-76
2022/09/17 09:58:46;;;;;;;5.67;0.77;;;;;;;;;;5057675;28;20024;-76
2022/09/17 10:01:19;;;;;;;4.80;1.38;;;;;;;;;;5053756;28;20056;-77
2022/09/17 10:03:45;;;;;;;4.05;0.77;;;;;;;;;;5056373;28;20024;-77
2022/09/17 10:06:13;;;;;;;3.67;0.80;;;;;;;;;;5057206;28;20048;-76
2022/09/17 10:08:40;;;;;;;6.43;1.10;;;;;;;;;;5053469;28;20024;-77
2022/09/17 10:11:26;;;;;;;5.30;1.40;;;;;;;;;;5053870;28;20739;-76
2022/09/17 10:13:52;;;;;;;2.40;0.80;;;;;;;;;;5056801;28;20040;-76
2022/09/17 10:16:18;;;;;;;3.35;0.90;;;;;;;;;;5052542;28;20033;-77
2022/09/17 10:18:44;;;;;;;3.15;0.80;;;;;;;;;;5054655;28;20066;-77
2022/09/17 10:21:21;;;;;;;3.83;0.85;;;;;;;;;;5055896;28;20045;-77
2022/09/17 10:23:47;;;;;;;4.97;0.95;;;;;;;;;;5055124;28;20052;-77
2022/09/17 10:26:28;;;;;;;2.10;0.60;;;;;;;;;;5054691;28;20107;-77
2022/09/17 10:28:55;;;;;;;3.97;0.90;;;;;;;;;;5052628;28;20036;-77
2022/09/17 10:31:21;;;;;;;5.40;1.08;;;;;;;;;;5052036;28;20510;-77
2022/09/17 10:33:53;;;;;;;6.07;1.00;;;;;;;;;;5057743;28;20032;-78
2022/09/17 10:36:39;;;;;;;4.47;1.35;;;;;;;;;;5054464;28;20048;-78
2022/09/17 10:39:24;;;;;;;10.00;1.45;;;;;;;;;;5054303;28;20062;-78
2022/09/17 10:42:13;;;;;;;6.57;1.23;;;;;;;;;;5057675;28;20451;-79
2022/09/17 10:44:50;;;;;;;6.20;0.90;;;;;;;;;;5056832;28;20037;-79
2022/09/17 10:47:21;;;;;;;2.85;0.60;;;;;;;;;;5053992;28;20052;-79
2022/09/17 10:50:07;;;;;;;3.90;0.68;;;;;;;;;;5059197;28;20025;-80
2022/09/17 10:52:39;;;;;;;3.85;0.88;;;;;;;;;;5057332;28;20037;-79
2022/09/17 10:55:08;;;;;;;1.08;0.45;;;;;;;;;;5056433;28;20024;-79
2022/09/17 10:57:34;;;;;;;3.35;0.63;;;;;;;;;;5055196;28;20074;-80
2022/09/17 11:00:09;;;;;;;6.50;0.70;;;;;;;;;;5053912;28;20024;-79
2022/09/17 11:02:47;;;;;;;2.53;0.60;;;;;;;;;;5054642;28;20701;-80
2022/09/17 11:05:39;;;;;;;1.60;0.50;;;;;;;;;;5052626;28;20025;-76
2022/09/17 11:08:27;;;;;;;1.85;0.70;;;;;;;;;;5053467;28;20045;-79
2022/09/17 11:11:15;;;;;;;6.93;1.20;;;;;;;;;;5052996;28;20025;-76
2022/09/17 11:13:41;;;;;;;6.55;1.20;;;;;;;;;;5052222;28;20736;-78
2022/09/17 11:16:07;;;;;;;5.72;1.00;;;;;;;;;;5058664;28;20032;-78
2022/09/17 11:18:33;;;;;;;4.40;0.85;;;;;;;;;;5055058;28;20061;-77
2022/09/17 11:21:07;;;;;;;6.35;1.08;;;;;;;;;;5053757;28;20495;-76
2022/09/17 11:23:53;;;;;;;5.50;0.80;;;;;;;;;;5058215;28;20153;-77
2022/09/17 11:26:20;;;;;;;8.95;1.10;;;;;;;;;;5052402;28;20033;-80
2022/09/17 11:29:00;;;;;;;6.10;1.42;;;;;;;;;;5052243;28;20012;-79
2022/09/17 11:31:46;;;;;;;4.20;1.00;;;;;;;;;;5054064;28;20067;-76
2022/09/17 11:34:32;;;;;;;5.95;1.55;;;;;;;;;;5050973;28;20036;-78
2022/09/17 11:37:18;;;;;;;7.00;1.15;;;;;;;;;;5046871;28;20028;-77
2022/09/17 11:39:49;;;;;;;5.38;1.40;;;;;;;;;;5048525;28;20067;-77
2022/09/17 11:42:22;;;;;;;11.65;1.60;;;;;;;;;;5048871;28;20044;-77
2022/09/17 11:44:50;;;;;;;8.65;1.60;;;;;;;;;;5049374;28;20089;-77
2022/09/17 11:47:32;;;;;;;8.77;1.60;;;;;;;;;;5049142;28;20052;-77
2022/09/17 11:50:16;;;;;;;11.43;1.80;;;;;;;;;;5053195;28;20037;-76
2022/09/17 11:52:44;;;;;;;9.25;1.63;;;;;;;;;;5052316;28;20171;-76
2022/09/17 11:55:17;;;;;;;8.02;1.60;;;;;;;;;;5051643;28;20036;-77
2022/09/17 11:57:43;;;;;;;6.47;1.45;;;;;;;;;;5050292;28;20036;-77
2022/09/17 12:00:17;;;;;;;9.90;2.00;;;;;;;;;;5053133;28;20060;-77
2022/09/17 12:02:59;;;;;;;4.93;1.05;;;;;;;;;;5055116;28;20036;-77
2022/09/17 12:05:28;;;;;;;10.75;1.95;;;;;;;;;;5051068;28;20040;-77
2022/09/17 12:08:04;;;;;;;8.70;2.10;;;;;;;;;;5050313;28;20700;-77
2022/09/17 12:10:49;;;;;;;11.98;2.30;;;;;;;;;;5052352;28;20029;-78
2022/09/17 12:13:34;;;;;;;6.88;1.33;;;;;;;;;;5052767;28;20614;-76
2022/09/17 12:16:06;;;;;;;7.82;1.45;;;;;;;;;;5055364;28;20032;-77
2022/09/17 12:18:41;;;;;;;8.13;0.90;;;;;;;;;;5053066;28;20036;-76
2022/09/17 12:21:12;;;;;;;3.83;0.77;;;;;;;;;;5053024;28;20052;-78
2022/09/17 12:23:43;;;;;;;5.82;0.90;;;;;;;;;;5059127;28;20448;-77
2022/09/17 12:26:12;;;;;;;6.78;1.27;;;;;;;;;;5055473;28;20061;-77
2022/09/17 12:28:57;;;;;;;6.88;1.23;;;;;;;;;;5056436;28;20029;-76
2022/09/17 12:31:28;;;;;;;3.58;1.00;;;;;;;;;;5055649;28;20029;-76
2022/09/17 12:34:17;;;;;;;2.15;0.60;;;;;;;;;;5054634;28;20032;-76
2022/09/17 12:37:18;;;;;;;2.65;0.80;;;;;;;;;;5055221;28;20534;-75
2022/09/17 12:39:53;;;;;;;5.90;1.25;;;;;;;;;;5054564;28;20090;-75
2022/09/17 12:42:22;;;;;;;4.85;1.05;;;;;;;;;;5056040;28;20110;-76
2022/09/17 12:45:13;;;;;;;7.97;1.40;;;;;;;;;;5056007;28;20025;-75
2022/09/17 12:47:59;;;;;;;8.60;0.82;;;;;;;;;;5054199;28;20035;-77
2022/09/17 12:50:46;;;;;;;4.45;1.00;;;;;;;;;;5053510;28;20139;-75
2022/09/17 12:53:27;;;;;;;3.78;1.40;;;;;;;;;;5055856;28;20537;-76
2022/09/17 12:56:02;;;;;;;4.22;0.75;;;;;;;;;;5058961;28;20403;-77
2022/09/17 12:58:39;;;;;;;4.18;1.00;;;;;;;;;;5059436;28;20066;-77
2022/09/17 13:01:05;;;;;;;6.72;1.00;;;;;;;;;;5055321;28;20434;-76
2022/09/17 13:03:37;;;;;;;4.78;1.02;;;;;;;;;;5057527;28;20135;-77
2022/09/17 13:06:03;;;;;;;7.43;1.15;;;;;;;;;;5054882;28;20028;-76
2022/09/17 13:08:48;;;;;;;4.45;0.88;;;;;;;;;;5054558;28;20448;-77
2022/09/17 13:11:23;;;;;;;5.45;0.90;;;;;;;;;;5058232;28;20025;-76
2022/09/17 13:13:52;;;;;;;5.78;1.25;;;;;;;;;;5056093;28;20043;-77
2022/09/17 13:16:22;;;;;;;7.45;1.13;;;;;;;;;;5053542;28;20494;-76
2022/09/17 13:18:48;;;;;;;;;;;;;;;;;;5054974;28;20027;-75
2022/09/17 13:21:18;;;;;;;5.78;0.98;;;;;;;;;;5052903;28;20011;-76
2022/09/17 13:23:45;;;;;;;;;;;;;;;;;;5053505;28;20448;-76
2022/09/17 13:26:15;;;;;;;3.38;0.90;;;;;;;;;;5054526;28;19959;-76
2022/09/17 13:28:45;;;;;;;4.70;1.20;;;;;;;;;;5051641;28;20033;-75
2022/09/17 13:31:13;;;;;;;9.32;1.30;;;;;;;;;;5056280;28;20108;-75
2022/09/17 13:33:56;;;;;;;6.72;1.30;;;;;;;;;;5053461;28;20054;-75
2022/09/17 13:36:48;;;;;;;5.05;0.93;;;;;;;;;;5055615;28;20037;-75
2022/09/17 13:39:32;;;;;;;6.00;1.33;;;;;;;;;;5055159;28;20309;-76
2022/09/17 13:42:08;;;;;;;5.90;1.13;;;;;;;;;;5056018;28;20032;-75
2022/09/17 13:44:39;;;;;;;5.30;0.98;;;;;;;;;;5055461;28;20043;-75
2022/09/17 13:47:14;;;;;;;5.07;1.13;;;;;;;;;;5054292;28;20453;-75
2022/09/17 13:49:45;;;;;;;4.43;0.93;;;;;;;;;;5056529;28;20025;-74
2022/09/17 13:52:11;;;;;;;5.25;0.80;;;;;;;;;;5052854;28;20111;-74
2022/09/17 13:54:38;;;;;;;6.20;1.73;;;;;;;;;;5055446;28;20040;-76
2022/09/17 13:57:12;;;;;;;5.90;1.20;;;;;;;;;;5053570;28;20117;-76
2022/09/17 13:59:53;;;;;;;5.18;1.15;;;;;;;;;;5055236;28;20029;-75
2022/09/17 14:02:27;;;;;;;6.00;1.50;;;;;;;;;;5053803;28;20032;-76
2022/09/17 14:04:55;;;;;;;6.82;1.40;;;;;;;;;;5053521;28;20107;-74
2022/09/17 14:07:22;;;;;;;9.23;1.45;;;;;;;;;;5053460;28;20078;-76
2022/09/17 14:09:54;;;;;;;13.73;1.90;;;;;;;;;;5051944;28;20024;-76
2022/09/17 14:12:49;;;;;;;9.90;1.40;;;;;;;;;;5051657;28;20036;-77
2022/09/17 14:15:38;;;;;;;5.57;1.67;;;;;;;;;;5057714;28;20031;-76
2022/09/17 14:18:22;;;;;;;9.88;1.85;;;;;;;;;;5053965;28;20013;-76
2022/09/17 14:20:48;;;;;;;8.43;2.17;;;;;;;;;;5049540;28;20057;-76
2022/09/17 14:23:15;;;;;;;7.70;1.52;;;;;;;;;;5055600;28;20043;-75
2022/09/17 14:25:46;;;;;;;7.40;1.33;;;;;;;;;;5053384;28;20454;-75
2022/09/17 14:28:38;;;;;;;7.97;1.42;;;;;;;;;;5051249;28;20120;-76
2022/09/17 14:31:09;;;;;;;8.10;1.60;;;;;;;;;;5050451;28;20040;-74
2022/09/17 14:33:35;;;;;;;6.22;1.35;;;;;;;;;;5055005;28;20036;-75
2022/09/17 14:36:07;;;;;;;7.32;1.25;;;;;;;;;;5056671;28;20028;-76
2022/09/17 14:38:43;;;;;;;6.18;1.38;;;;;;;;;;5054054;28;20147;-74
2022/09/17 14:41:13;;;;;;;6.43;1.23;;;;;;;;;;5056107;28;20036;-75
2022/09/17 14:43:42;;;;;;;6.78;1.35;;;;;;;;;;5049301;28;20044;-74
2022/09/17 14:46:15;;;;;;;12.02;2.13;;;;;;;;;;5054731;28;20025;-75
2022/09/17 14:48:41;;;;;;;10.35;1.45;;;;;;;;;;5054006;28;20048;-75
2022/09/17 14:51:16;;;;;;;6.90;1.70;;;;;;;;;;5058076;28;20056;-75
2022/09/17 14:53:47;;;;;;;6.68;1.58;;;;;;;;;;5052688;28;20106;-75
2022/09/17 14:56:22;;;;;;;9.27;2.10;;;;;;;;;;5053559;28;20032;-76
2022/09/17 14:58:51;;;;;;;7.97;1.48;;;;;;;;;;5056645;28;20054;-75
2022/09/17 15:01:28;;;;;;;3.70;0.85;;;;;;;;;;5052018;28;20028;-75